createdAt,value
2022-12-31T00:00:49.792Z,998.58
2022-12-31T00:01:49.767Z,998.58
2022-12-31T00:02:49.811Z,998.60
2022-12-31T00:03:49.673Z,998.59
2022-12-31T00:04:49.632Z,998.60
2022-12-31T00:05:49.637Z,998.61
2022-12-31T00:06:49.647Z,998.64
2022-12-31T00:07:49.661Z,998.61
2022-12-31T00:08:49.601Z,998.62
2022-12-31T00:09:49.590Z,998.65
2022-12-31T00:10:49.559Z,998.60
2022-12-31T00:11:49.582Z,998.61
2022-12-31T00:12:49.555Z,998.64
2022-12-31T00:13:49.555Z,998.64
2022-12-31T00:14:49.535Z,998.66
2022-12-31T00:15:49.530Z,998.60
2022-12-31T00:16:49.688Z,998.58
2022-12-31T00:17:49.496Z,998.56
2022-12-31T00:18:49.492Z,998.56
2022-12-31T00:19:49.480Z,998.59
2022-12-31T00:20:49.448Z,998.62
2022-12-31T00:21:49.463Z,998.59
2022-12-31T00:22:49.427Z,998.59
2022-12-31T00:23:49.427Z,998.59
2022-12-31T00:24:49.421Z,998.63
2022-12-31T00:25:49.419Z,998.55
2022-12-31T00:26:49.409Z,998.59
2022-12-31T00:27:49.401Z,998.60
2022-12-31T00:28:49.387Z,998.58
2022-12-31T00:29:49.383Z,998.57
2022-12-31T00:30:49.378Z,998.53
2022-12-31T00:31:49.340Z,998.53
2022-12-31T00:32:49.323Z,998.53
2022-12-31T00:33:49.332Z,998.50
2022-12-31T00:34:49.315Z,998.52
2022-12-31T00:35:49.330Z,998.54
2022-12-31T00:36:49.399Z,998.52
2022-12-31T00:37:49.287Z,998.50
2022-12-31T00:38:49.269Z,998.52
2022-12-31T00:39:49.263Z,998.50
2022-12-31T00:40:49.253Z,998.55
2022-12-31T00:41:49.304Z,998.53
2022-12-31T00:42:49.211Z,998.53
2022-12-31T00:43:49.214Z,998.53
2022-12-31T00:44:49.196Z,998.60
2022-12-31T00:45:49.263Z,998.53
2022-12-31T00:46:49.237Z,998.54
2022-12-31T00:47:49.183Z,998.46
2022-12-31T00:48:49.154Z,998.49
2022-12-31T00:49:49.143Z,998.48
2022-12-31T00:50:49.137Z,998.43
2022-12-31T00:51:49.130Z,998.46
2022-12-31T00:52:49.098Z,998.47
2022-12-31T00:53:49.126Z,998.52
2022-12-31T00:54:49.090Z,998.52
2022-12-31T00:55:49.086Z,998.51
2022-12-31T00:56:49.102Z,998.54
2022-12-31T00:57:49.068Z,998.59
2022-12-31T00:58:49.045Z,998.61
2022-12-31T00:59:49.058Z,998.63
2022-12-31T01:00:49.028Z,998.69
2022-12-31T01:01:49.075Z,998.70
2022-12-31T01:02:49.100Z,998.69
2022-12-31T01:03:49.021Z,998.70
2022-12-31T01:04:48.970Z,998.72
2022-12-31T01:05:48.993Z,998.69
2022-12-31T01:06:48.955Z,998.69
2022-12-31T01:07:48.967Z,998.66
2022-12-31T01:08:48.946Z,998.71
2022-12-31T01:09:48.960Z,998.75
2022-12-31T01:10:48.905Z,998.71
2022-12-31T01:11:48.926Z,998.75
2022-12-31T01:12:48.912Z,998.83
2022-12-31T01:13:48.894Z,998.79
2022-12-31T01:14:48.907Z,998.77
2022-12-31T01:15:48.957Z,998.80
2022-12-31T01:16:48.845Z,998.81
2022-12-31T01:17:48.846Z,998.75
2022-12-31T01:18:48.817Z,998.77
2022-12-31T01:19:48.826Z,998.77
2022-12-31T01:20:48.820Z,998.78
2022-12-31T01:21:48.795Z,998.81
2022-12-31T01:22:48.779Z,998.84
2022-12-31T01:23:48.785Z,998.83
2022-12-31T01:24:48.758Z,998.91
2022-12-31T01:25:48.771Z,998.91
2022-12-31T01:26:48.764Z,998.93
2022-12-31T01:27:48.739Z,998.90
2022-12-31T01:28:48.712Z,998.91
2022-12-31T01:29:48.721Z,998.88
2022-12-31T01:30:48.703Z,998.83
2022-12-31T01:31:48.708Z,998.85
2022-12-31T01:32:48.666Z,998.95
2022-12-31T01:33:48.701Z,998.86
2022-12-31T01:34:48.644Z,998.83
2022-12-31T01:35:48.659Z,998.88
2022-12-31T01:36:48.622Z,998.84
2022-12-31T01:37:48.650Z,998.86
2022-12-31T01:38:48.649Z,998.79
2022-12-31T01:39:48.615Z,998.83
2022-12-31T01:40:48.581Z,998.81
2022-12-31T01:41:48.585Z,998.79
2022-12-31T01:42:48.554Z,998.85
2022-12-31T01:43:48.594Z,998.82
2022-12-31T01:44:48.560Z,998.86
2022-12-31T01:45:48.564Z,998.80
2022-12-31T01:46:48.525Z,998.79
2022-12-31T01:47:48.521Z,998.79
2022-12-31T01:48:48.494Z,998.78
2022-12-31T01:49:48.511Z,998.79
2022-12-31T01:50:48.485Z,998.74
2022-12-31T01:51:48.489Z,998.70
2022-12-31T01:52:48.461Z,998.71
2022-12-31T01:53:48.454Z,998.71
2022-12-31T01:54:48.447Z,998.70
2022-12-31T01:55:48.439Z,998.74
2022-12-31T01:56:48.460Z,998.74
2022-12-31T01:57:48.419Z,998.68
2022-12-31T01:58:48.402Z,998.67
2022-12-31T01:59:48.394Z,998.69
2022-12-31T02:00:48.374Z,998.72
2022-12-31T02:01:48.586Z,998.67
2022-12-31T02:02:48.449Z,998.64
2022-12-31T02:03:48.340Z,998.68
2022-12-31T02:04:48.326Z,998.72
2022-12-31T02:05:48.325Z,998.69
2022-12-31T02:06:48.535Z,998.73
2022-12-31T02:07:48.313Z,998.67
2022-12-31T02:08:48.281Z,998.65
2022-12-31T02:09:48.284Z,998.62
2022-12-31T02:10:48.252Z,998.76
2022-12-31T02:11:48.536Z,998.73
2022-12-31T02:12:48.235Z,998.70
2022-12-31T02:13:49.782Z,998.72
2022-12-31T02:14:48.214Z,998.61
2022-12-31T02:15:48.238Z,998.75
2022-12-31T02:16:48.289Z,998.76
2022-12-31T02:17:48.207Z,998.63
2022-12-31T02:18:48.171Z,998.72
2022-12-31T02:19:48.176Z,998.66
2022-12-31T02:20:48.161Z,998.67
2022-12-31T02:21:48.152Z,998.64
2022-12-31T02:22:48.135Z,998.52
2022-12-31T02:23:48.119Z,998.83
2022-12-31T02:24:48.095Z,998.61
2022-12-31T02:25:48.108Z,998.53
2022-12-31T02:26:48.079Z,998.48
2022-12-31T02:27:48.094Z,998.62
2022-12-31T02:28:48.070Z,998.63
2022-12-31T02:29:48.077Z,998.70
2022-12-31T07:00:57.418Z,1000.57
2022-12-31T07:01:58.474Z,1000.57
2022-12-31T07:02:58.333Z,1000.48
2022-12-31T07:03:58.272Z,1000.52
2022-12-31T07:04:58.264Z,1000.49
2022-12-31T07:05:58.296Z,1000.47
2022-12-31T07:06:58.238Z,1000.50
2022-12-31T07:07:58.281Z,1000.48
2022-12-31T07:08:58.210Z,1000.53
2022-12-31T07:09:58.221Z,1000.47
2022-12-31T07:10:58.194Z,1000.49
2022-12-31T07:11:58.198Z,1000.53
2022-12-31T07:12:58.160Z,1000.52
2022-12-31T07:13:58.182Z,1000.53
2022-12-31T07:14:58.177Z,1000.54
2022-12-31T07:15:58.241Z,1000.64
2022-12-31T07:16:58.164Z,1000.57
2022-12-31T07:17:58.130Z,1000.60
2022-12-31T07:18:58.103Z,1000.65
2022-12-31T07:19:58.167Z,1000.56
2022-12-31T07:20:58.078Z,1000.59
2022-12-31T07:21:58.075Z,1000.57
2022-12-31T07:22:58.064Z,1000.63
2022-12-31T07:23:58.050Z,1000.58
2022-12-31T07:24:58.043Z,1000.65
2022-12-31T07:25:58.060Z,1000.58
2022-12-31T07:26:58.050Z,1000.60
2022-12-31T07:27:58.029Z,1000.68
2022-12-31T07:28:57.997Z,1000.65
2022-12-31T07:29:58.023Z,1000.67
2022-12-31T07:30:58.033Z,1000.64
2022-12-31T07:31:57.988Z,1000.62
2022-12-31T07:32:57.949Z,1000.66
2022-12-31T07:33:57.955Z,1000.67
2022-12-31T07:34:57.949Z,1000.70
2022-12-31T07:35:57.948Z,1000.59
2022-12-31T07:36:57.898Z,1000.72
2022-12-31T07:37:57.913Z,1000.67
2022-12-31T07:38:57.877Z,1000.70
2022-12-31T07:39:57.889Z,1000.71
2022-12-31T07:40:58.640Z,1000.65
2022-12-31T07:41:57.862Z,1000.76
2022-12-31T07:42:57.847Z,1000.72
2022-12-31T07:43:57.841Z,1000.80
2022-12-31T07:44:57.815Z,1000.75
2022-12-31T07:45:57.852Z,1000.76
2022-12-31T07:46:57.841Z,1000.81
2022-12-31T07:48:02.518Z,1000.82
2022-12-31T07:48:57.788Z,1000.98
2022-12-31T07:49:57.778Z,1000.82
2022-12-31T07:50:57.826Z,1000.78
2022-12-31T07:51:57.768Z,1000.82
2022-12-31T07:52:57.723Z,1000.90
2022-12-31T07:53:57.749Z,1000.90
2022-12-31T07:54:57.707Z,1000.88
2022-12-31T07:55:57.711Z,1000.96
2022-12-31T07:56:57.719Z,1000.96
2022-12-31T07:57:57.723Z,1001.00
2022-12-31T07:58:57.670Z,1000.99
2022-12-31T07:59:57.683Z,1001.05
2022-12-31T08:00:57.758Z,1001.07
2022-12-31T08:01:57.729Z,1001.05
2022-12-31T08:02:57.665Z,1001.10
2022-12-31T08:03:57.643Z,1001.22
2022-12-31T08:04:57.605Z,1001.18
2022-12-31T08:05:57.605Z,1001.16
2022-12-31T08:06:57.588Z,1001.17
2022-12-31T08:07:57.609Z,1001.21
2022-12-31T08:08:57.562Z,1001.16
2022-12-31T08:09:57.565Z,1001.14
2022-12-31T08:10:57.531Z,1001.18
2022-12-31T08:11:57.569Z,1001.16
2022-12-31T08:12:57.569Z,1001.18
2022-12-31T08:13:57.512Z,1001.23
2022-12-31T08:14:57.500Z,1001.24
2022-12-31T08:15:57.548Z,1001.35
2022-12-31T08:16:57.491Z,1001.27
2022-12-31T08:17:57.501Z,1001.29
2022-12-31T08:18:57.481Z,1001.30
2022-12-31T08:19:57.449Z,1001.33
2022-12-31T08:20:57.420Z,1001.32
2022-12-31T08:21:57.433Z,1001.45
2022-12-31T08:22:57.456Z,1001.39
2022-12-31T08:23:57.407Z,1001.42
2022-12-31T08:24:57.372Z,1001.45
2022-12-31T08:25:57.424Z,1001.51
2022-12-31T08:26:57.367Z,1001.52
2022-12-31T08:27:57.359Z,1001.56
2022-12-31T08:28:57.356Z,1001.51
2022-12-31T08:29:57.350Z,1001.52
2022-12-31T08:30:57.309Z,1001.57
2022-12-31T08:31:57.372Z,1001.51
2022-12-31T08:32:57.302Z,1001.50
2022-12-31T08:34:00.721Z,1001.49
2022-12-31T08:34:57.286Z,1001.49
2022-12-31T08:35:57.268Z,1001.53
2022-12-31T08:36:57.259Z,1001.50
2022-12-31T08:37:57.243Z,1001.44
2022-12-31T08:38:57.254Z,1001.55
2022-12-31T08:39:57.238Z,1001.59
2022-12-31T08:40:57.261Z,1001.50
2022-12-31T08:41:57.239Z,1001.53
2022-12-31T08:42:57.189Z,1001.60
2022-12-31T08:43:57.186Z,1001.63
2022-12-31T08:44:57.186Z,1001.68
2022-12-31T08:45:57.255Z,1001.55
2022-12-31T08:46:57.150Z,1001.55
2022-12-31T08:48:00.014Z,1001.50
2022-12-31T08:48:57.117Z,1001.46
2022-12-31T08:49:57.137Z,1001.46
2022-12-31T08:50:57.105Z,1001.47
2022-12-31T08:51:57.126Z,1001.55
2022-12-31T08:52:57.073Z,1001.47
2022-12-31T08:53:57.084Z,1001.46
2022-12-31T08:54:57.052Z,1001.42
2022-12-31T08:55:57.059Z,1001.43
2022-12-31T08:56:57.022Z,1001.47
2022-12-31T08:57:57.067Z,1001.49
2022-12-31T08:58:57.015Z,1001.41
2022-12-31T08:59:57.053Z,1001.52
2022-12-31T09:00:57.182Z,1001.54
2022-12-31T09:01:57.090Z,1001.48
2022-12-31T09:02:56.967Z,1001.56
2022-12-31T09:03:57.033Z,1001.57
2022-12-31T09:04:56.973Z,1001.58
2022-12-31T09:05:56.941Z,1001.49
2022-12-31T09:06:56.918Z,1001.52
2022-12-31T09:07:56.931Z,1001.50
2022-12-31T09:08:56.957Z,1001.57
2022-12-31T09:09:56.924Z,1001.54
2022-12-31T09:10:56.898Z,1001.57
2022-12-31T09:11:56.885Z,1001.70
2022-12-31T09:12:56.875Z,1001.67
2022-12-31T09:13:56.871Z,1001.66
2022-12-31T09:14:56.886Z,1001.59
2022-12-31T09:15:56.889Z,1001.64
2022-12-31T09:16:56.864Z,1001.65
2022-12-31T09:17:56.811Z,1001.66
2022-12-31T09:18:56.808Z,1001.74
2022-12-31T09:19:56.804Z,1001.74
2022-12-31T09:20:56.779Z,1001.64
2022-12-31T09:21:56.776Z,1001.70
2022-12-31T09:22:56.749Z,1001.69
2022-12-31T09:23:56.752Z,1001.77
2022-12-31T09:24:56.751Z,1001.84
2022-12-31T09:25:56.734Z,1001.74
2022-12-31T09:26:56.734Z,1001.79
2022-12-31T09:27:56.748Z,1001.82
2022-12-31T09:28:56.744Z,1001.79
2022-12-31T09:29:56.865Z,1001.81
2022-12-31T09:30:56.687Z,1001.85
2022-12-31T09:31:56.764Z,1001.87
2022-12-31T09:33:00.860Z,1001.87
2022-12-31T09:33:56.645Z,1001.91
2022-12-31T09:34:56.643Z,1001.94
2022-12-31T09:35:56.645Z,1001.96
2022-12-31T09:36:56.591Z,1001.91
2022-12-31T09:37:56.597Z,1001.86
2022-12-31T09:38:56.578Z,1001.93
2022-12-31T09:39:56.576Z,1001.93
2022-12-31T09:40:56.548Z,1001.96
2022-12-31T09:41:56.580Z,1001.98
2022-12-31T09:42:56.550Z,1001.99
2022-12-31T09:44:00.953Z,1002.03
2022-12-31T09:44:56.517Z,1002.02
2022-12-31T09:45:56.542Z,1002.07
2022-12-31T09:46:56.486Z,1002.05
2022-12-31T09:47:56.486Z,1002.10
2022-12-31T09:48:56.479Z,1002.03
2022-12-31T09:49:56.479Z,1002.11
2022-12-31T09:50:56.482Z,1002.05
2022-12-31T09:51:56.456Z,1002.01
2022-12-31T09:52:56.442Z,1001.96
2022-12-31T09:53:56.445Z,1002.07
2022-12-31T09:54:56.425Z,1001.96
2022-12-31T09:55:56.396Z,1001.94
2022-12-31T09:56:59.184Z,1001.96
2022-12-31T09:57:56.387Z,1001.96
2022-12-31T09:58:56.364Z,1002.02
2022-12-31T09:59:56.363Z,1001.97
2022-12-31T10:00:56.551Z,1002.01
2022-12-31T10:01:56.444Z,1001.92
2022-12-31T10:02:56.393Z,1001.87
2022-12-31T10:03:56.354Z,1001.99
2022-12-31T10:04:56.287Z,1001.91
2022-12-31T10:05:56.296Z,1001.96
2022-12-31T10:06:56.281Z,1001.96
2022-12-31T10:07:56.331Z,1002.02
2022-12-31T10:08:56.276Z,1002.10
2022-12-31T10:09:56.251Z,1001.97
2022-12-31T10:10:56.242Z,1002.07
2022-12-31T10:11:56.231Z,1002.10
2022-12-31T10:12:56.195Z,1002.00
2022-12-31T10:13:56.219Z,1002.02
2022-12-31T10:14:56.198Z,1002.13
2022-12-31T10:15:56.199Z,1002.03
2022-12-31T10:16:56.240Z,1002.05
2022-12-31T10:17:56.189Z,1002.03
2022-12-31T10:18:56.145Z,1002.01
2022-12-31T10:19:56.191Z,1001.93
2022-12-31T10:20:56.121Z,1001.98
2022-12-31T10:21:56.117Z,1002.00
2022-12-31T10:22:56.092Z,1001.98
2022-12-31T10:23:56.091Z,1002.14
2022-12-31T10:24:56.109Z,1002.04
2022-12-31T10:25:56.113Z,1002.03
2022-12-31T10:26:56.056Z,1002.14
2022-12-31T10:27:56.061Z,1001.98
2022-12-31T10:28:56.057Z,1002.02
2022-12-31T10:29:56.034Z,1002.10
2022-12-31T10:30:56.085Z,1002.01
2022-12-31T10:31:56.061Z,1001.97
2022-12-31T10:32:56.014Z,1001.91
2022-12-31T10:33:56.017Z,1001.99
2022-12-31T10:34:55.979Z,1002.04
2022-12-31T10:35:56.001Z,1002.01
2022-12-31T10:36:55.956Z,1002.00
2022-12-31T10:37:55.962Z,1002.01
2022-12-31T10:38:55.924Z,1002.09
2022-12-31T10:39:55.925Z,1002.12
2022-12-31T10:40:55.904Z,1002.09
2022-12-31T10:41:55.917Z,1002.12
2022-12-31T10:42:55.889Z,1002.10
2022-12-31T10:43:55.912Z,1002.08
2022-12-31T10:44:55.856Z,1002.15
2022-12-31T10:45:55.934Z,1002.11
2022-12-31T10:46:55.849Z,1002.08
2022-12-31T10:47:55.841Z,1002.08
2022-12-31T10:48:55.822Z,1002.09
2022-12-31T10:49:55.829Z,1001.96
2022-12-31T10:50:55.796Z,1002.00
2022-12-31T10:51:55.812Z,1002.24
2022-12-31T10:52:55.761Z,1002.09
2022-12-31T10:53:55.779Z,1002.15
2022-12-31T10:54:55.746Z,1002.10
2022-12-31T10:55:55.759Z,1002.14
2022-12-31T10:56:55.755Z,1002.11
2022-12-31T10:58:01.898Z,1002.07
2022-12-31T10:58:55.706Z,1002.04
2022-12-31T10:59:55.707Z,1002.05
2022-12-31T11:00:55.703Z,1002.04
2022-12-31T11:01:55.742Z,1002.06
2022-12-31T11:02:55.824Z,1002.02
2022-12-31T11:03:55.735Z,1002.10
2022-12-31T11:04:55.655Z,1002.07
2022-12-31T11:05:55.648Z,1002.12
2022-12-31T11:06:55.705Z,1002.09
2022-12-31T11:07:55.657Z,1002.14
2022-12-31T11:08:55.611Z,1002.18
2022-12-31T11:09:55.628Z,1002.16
2022-12-31T11:10:55.584Z,1002.24
2022-12-31T11:11:55.570Z,1002.33
2022-12-31T11:12:55.579Z,1002.32
2022-12-31T11:13:55.544Z,1002.18
2022-12-31T11:14:55.544Z,1002.23
2022-12-31T11:15:55.629Z,1002.14
2022-12-31T11:16:55.548Z,1002.27
2022-12-31T11:17:55.494Z,1002.35
2022-12-31T11:18:55.514Z,1002.27
2022-12-31T11:19:55.475Z,1002.29
2022-12-31T11:20:55.486Z,1002.30
2022-12-31T11:21:55.463Z,1002.31
2022-12-31T11:22:55.470Z,1002.38
2022-12-31T11:23:55.441Z,1002.38
2022-12-31T11:24:55.446Z,1002.35
2022-12-31T11:25:55.423Z,1002.31
2022-12-31T11:26:55.488Z,1002.38
2022-12-31T11:27:55.407Z,1002.36
2022-12-31T11:28:55.427Z,1002.41
2022-12-31T11:29:55.374Z,1002.39
2022-12-31T11:30:55.506Z,1002.39
2022-12-31T11:31:55.375Z,1002.42
2022-12-31T11:32:55.354Z,1002.38
2022-12-31T11:33:55.313Z,1002.43
2022-12-31T11:34:55.335Z,1002.40
2022-12-31T11:35:55.317Z,1002.24
2022-12-31T11:36:55.352Z,1002.27
2022-12-31T11:37:55.287Z,1002.27
2022-12-31T11:38:55.289Z,1002.26
2022-12-31T11:39:55.294Z,1002.28
2022-12-31T11:40:55.265Z,1002.32
2022-12-31T11:41:55.233Z,1002.26
2022-12-31T11:42:55.244Z,1002.33
2022-12-31T11:43:55.223Z,1002.31
2022-12-31T11:44:55.234Z,1002.20
2022-12-31T11:45:55.207Z,1002.25
2022-12-31T11:46:55.252Z,1002.26
2022-12-31T11:48:29.250Z,1002.23
2022-12-31T11:48:55.199Z,1002.25
2022-12-31T11:49:55.162Z,1002.27
2022-12-31T11:50:55.157Z,1002.24
2022-12-31T11:51:55.132Z,1002.23
2022-12-31T11:52:55.134Z,1002.19
2022-12-31T11:53:55.111Z,1002.20
2022-12-31T11:54:55.127Z,1002.22
2022-12-31T11:55:55.148Z,1002.20
2022-12-31T11:56:55.082Z,1002.19
2022-12-31T11:57:55.073Z,1002.20
2022-12-31T11:58:55.150Z,1002.15
2022-12-31T11:59:55.073Z,1002.13
2022-12-31T12:00:55.057Z,1002.04
2022-12-31T12:01:55.021Z,1002.12
2022-12-31T12:02:55.100Z,1002.08
2022-12-31T12:03:55.049Z,1002.05
2022-12-31T12:04:55.024Z,1002.11
2022-12-31T12:05:54.985Z,1002.12
2022-12-31T12:06:55.061Z,1002.08
2022-12-31T12:07:54.969Z,1002.12
2022-12-31T12:08:54.978Z,1002.03
2022-12-31T12:09:54.936Z,1002.02
2022-12-31T12:10:54.967Z,1002.00
2022-12-31T12:11:54.926Z,1001.96
2022-12-31T12:12:54.928Z,1001.99
2022-12-31T12:13:54.893Z,1001.93
2022-12-31T12:14:54.916Z,1002.07
2022-12-31T12:15:54.914Z,1002.00
2022-12-31T12:16:57.861Z,1002.08
2022-12-31T12:17:54.877Z,1001.92
2022-12-31T12:18:54.856Z,1001.91
2022-12-31T12:19:54.847Z,1001.89
2022-12-31T12:20:54.841Z,1001.80
2022-12-31T12:21:54.850Z,1001.89
2022-12-31T12:22:54.804Z,1001.96
2022-12-31T12:23:54.798Z,1001.82
2022-12-31T12:24:54.784Z,1001.80
2022-12-31T12:25:54.793Z,1001.82
2022-12-31T12:26:54.765Z,1001.84
2022-12-31T12:27:54.759Z,1001.79
2022-12-31T12:28:54.749Z,1001.82
2022-12-31T12:29:54.729Z,1001.78
2022-12-31T12:30:54.727Z,1001.81
2022-12-31T12:31:54.692Z,1001.84
2022-12-31T12:32:54.701Z,1001.90
2022-12-31T12:33:54.685Z,1001.89
2022-12-31T12:34:55.089Z,1001.84
2022-12-31T12:35:54.654Z,1001.88
2022-12-31T12:36:54.667Z,1001.87
2022-12-31T12:37:54.626Z,1001.79
2022-12-31T12:38:54.641Z,1001.85
2022-12-31T12:39:54.647Z,1001.77
2022-12-31T12:40:54.624Z,1001.71
2022-12-31T12:41:54.589Z,1001.77
2022-12-31T12:42:54.584Z,1001.78
2022-12-31T12:43:54.562Z,1001.81
2022-12-31T12:44:54.576Z,1001.91
2022-12-31T12:45:54.536Z,1001.81
2022-12-31T12:46:54.585Z,1001.82
2022-12-31T12:47:54.518Z,1001.85
2022-12-31T12:48:54.524Z,1001.83
2022-12-31T12:49:54.518Z,1001.77
2022-12-31T12:50:54.518Z,1001.87
2022-12-31T12:51:54.484Z,1001.79
2022-12-31T12:52:59.141Z,1001.73
2022-12-31T12:53:54.479Z,1001.75
2022-12-31T12:54:54.465Z,1001.79
2022-12-31T12:55:54.443Z,1001.69
2022-12-31T12:56:54.465Z,1001.78
2022-12-31T12:57:54.409Z,1001.72
2022-12-31T12:58:54.440Z,1001.74
2022-12-31T12:59:54.413Z,1001.83
2022-12-31T13:00:54.423Z,1001.79
2022-12-31T13:01:54.556Z,1001.87
2022-12-31T13:02:54.434Z,1001.85
2022-12-31T13:04:32.542Z,1001.76
2022-12-31T13:04:54.344Z,1001.87
2022-12-31T13:05:54.324Z,1001.79
2022-12-31T13:06:54.320Z,1001.70
2022-12-31T13:07:54.456Z,1001.74
2022-12-31T13:08:54.330Z,1001.85
2022-12-31T13:09:54.336Z,1001.79
2022-12-31T13:10:54.280Z,1001.75
2022-12-31T13:11:54.257Z,1001.82
2022-12-31T13:13:54.253Z,1001.88
2022-12-31T13:14:54.284Z,1001.83
2022-12-31T13:15:54.288Z,1001.85
2022-12-31T13:16:54.214Z,1001.81
2022-12-31T13:17:58.651Z,1001.75
2022-12-31T13:18:54.188Z,1001.78
2022-12-31T13:19:54.239Z,1001.79
2022-12-31T13:20:54.171Z,1001.75
2022-12-31T13:21:54.158Z,1001.78
2022-12-31T13:22:54.146Z,1001.82
2022-12-31T13:23:54.119Z,1001.81
2022-12-31T13:24:54.158Z,1001.76
2022-12-31T13:25:54.140Z,1001.78
2022-12-31T13:26:54.119Z,1001.75
2022-12-31T13:27:54.172Z,1001.82
2022-12-31T13:28:54.094Z,1001.94
2022-12-31T13:29:54.058Z,1001.77
2022-12-31T13:30:54.089Z,1001.81
2022-12-31T13:31:54.089Z,1001.83
2022-12-31T13:32:54.060Z,1001.83
2022-12-31T13:33:54.033Z,1001.80
2022-12-31T13:34:54.008Z,1001.84
2022-12-31T13:35:53.991Z,1001.77
2022-12-31T13:36:54.013Z,1001.76
2022-12-31T13:37:53.998Z,1001.73
2022-12-31T13:38:54.019Z,1001.66
2022-12-31T13:39:53.940Z,1001.58
2022-12-31T13:40:53.964Z,1001.61
2022-12-31T13:41:53.928Z,1001.58
2022-12-31T13:42:53.944Z,1001.62
2022-12-31T13:43:53.924Z,1001.58
2022-12-31T13:44:53.927Z,1001.64
2022-12-31T13:45:54.023Z,1001.66
2022-12-31T13:46:54.075Z,1001.62
2022-12-31T13:47:53.917Z,1001.58
2022-12-31T13:48:53.875Z,1001.53
2022-12-31T13:49:53.842Z,1001.57
2022-12-31T13:50:53.848Z,1001.51
2022-12-31T13:51:53.816Z,1001.49
2022-12-31T13:52:53.837Z,1001.53
2022-12-31T13:53:53.797Z,1001.49
2022-12-31T13:54:53.794Z,1001.57
2022-12-31T13:55:56.979Z,1001.51
2022-12-31T13:56:53.779Z,1001.53
2022-12-31T13:57:53.748Z,1001.63
2022-12-31T13:58:53.791Z,1001.63
2022-12-31T13:59:53.739Z,1001.53
2022-12-31T14:00:53.765Z,1001.59
2022-12-31T14:01:53.906Z,1001.45
2022-12-31T14:02:53.848Z,1001.50
2022-12-31T14:03:53.683Z,1001.43
2022-12-31T14:04:53.730Z,1001.44
2022-12-31T14:05:53.674Z,1001.44
2022-12-31T14:06:53.677Z,1001.40
2022-12-31T14:07:53.650Z,1001.51
2022-12-31T14:08:53.658Z,1001.53
2022-12-31T14:09:53.637Z,1001.63
2022-12-31T14:10:53.657Z,1001.66
2022-12-31T14:11:53.608Z,1001.64
2022-12-31T14:12:53.630Z,1001.69
2022-12-31T14:13:53.575Z,1001.74
2022-12-31T14:14:53.595Z,1001.82
2022-12-31T14:15:53.548Z,1001.79
2022-12-31T14:16:53.652Z,1001.91
2022-12-31T14:17:53.542Z,1001.93
2022-12-31T14:18:53.537Z,1001.97
2022-12-31T14:19:53.514Z,1001.92
2022-12-31T14:20:53.511Z,1001.88
2022-12-31T14:21:53.482Z,1001.82
2022-12-31T14:22:53.532Z,1001.80
2022-12-31T14:23:53.472Z,1001.76
2022-12-31T14:24:53.504Z,1001.80
2022-12-31T14:25:53.444Z,1001.89
2022-12-31T14:26:53.482Z,1001.84
2022-12-31T14:27:53.461Z,1001.88
2022-12-31T14:28:53.424Z,1001.84
2022-12-31T14:29:53.400Z,1001.91
2022-12-31T14:30:53.408Z,1002.00
2022-12-31T14:31:53.518Z,1002.01
2022-12-31T14:32:53.415Z,1002.04
2022-12-31T14:33:53.370Z,1002.07
2022-12-31T14:34:53.357Z,1002.09
2022-12-31T14:35:53.367Z,1002.00
2022-12-31T14:36:53.395Z,1002.06
2022-12-31T14:37:53.366Z,1001.94
2022-12-31T14:38:53.352Z,1001.99
2022-12-31T14:39:53.292Z,1002.00
2022-12-31T14:40:53.307Z,1002.00
2022-12-31T14:41:53.273Z,1001.99
2022-12-31T14:42:53.277Z,1001.95
2022-12-31T14:43:53.364Z,1002.01
2022-12-31T14:44:53.257Z,1001.96
2022-12-31T14:45:53.259Z,1001.94
2022-12-31T14:46:53.310Z,1001.90
2022-12-31T14:47:53.199Z,1001.93
2022-12-31T14:48:53.219Z,1001.90
2022-12-31T14:49:53.202Z,1001.99
2022-12-31T14:50:53.199Z,1001.94
2022-12-31T14:51:53.165Z,1002.02
2022-12-31T14:52:53.188Z,1002.07
2022-12-31T14:53:53.177Z,1002.14
2022-12-31T14:54:53.154Z,1002.11
2022-12-31T14:55:53.134Z,1002.10
2022-12-31T14:56:53.289Z,1002.06
2022-12-31T14:58:53.093Z,1002.02
2022-12-31T14:59:53.106Z,1002.03
2022-12-31T15:00:53.095Z,1002.05
2022-12-31T15:01:53.232Z,1002.08
2022-12-31T15:02:53.098Z,1002.09
2022-12-31T15:03:53.061Z,1002.10
2022-12-31T15:04:53.020Z,1002.24
2022-12-31T15:05:53.054Z,1002.19
2022-12-31T15:06:53.351Z,1002.25
2022-12-31T15:07:52.996Z,1002.25
2022-12-31T15:08:52.998Z,1002.19
2022-12-31T15:09:52.991Z,1002.22
2022-12-31T15:10:52.961Z,1002.23
2022-12-31T15:11:52.979Z,1002.23
2022-12-31T15:12:52.949Z,1002.25
2022-12-31T15:13:52.938Z,1002.27
2022-12-31T15:14:52.931Z,1002.26
2022-12-31T15:15:52.954Z,1002.19
2022-12-31T15:16:52.986Z,1002.18
2022-12-31T15:17:52.883Z,1002.24
2022-12-31T15:18:52.887Z,1002.23
2022-12-31T15:19:52.876Z,1002.29
2022-12-31T15:20:52.857Z,1002.33
2022-12-31T15:21:52.843Z,1002.28
2022-12-31T15:22:52.988Z,1002.26
2022-12-31T15:23:52.823Z,1002.26
2022-12-31T15:24:52.795Z,1002.23
2022-12-31T15:25:52.888Z,1002.19
2022-12-31T15:26:52.805Z,1002.22
2022-12-31T15:27:52.799Z,1002.25
2022-12-31T15:28:52.790Z,1002.27
2022-12-31T15:29:52.754Z,1002.24
2022-12-31T15:30:52.793Z,1002.28
2022-12-31T15:31:52.735Z,1002.20
2022-12-31T15:32:52.728Z,1002.22
2022-12-31T15:33:52.739Z,1002.23
2022-12-31T15:34:53.511Z,1002.25
2022-12-31T15:35:52.705Z,1002.26
2022-12-31T15:36:52.675Z,1002.29
2022-12-31T15:37:52.670Z,1002.27
2022-12-31T15:38:52.658Z,1002.26
2022-12-31T15:39:52.667Z,1002.32
2022-12-31T15:40:52.642Z,1002.29
2022-12-31T15:42:52.618Z,1002.29
2022-12-31T15:43:52.631Z,1002.28
2022-12-31T15:44:52.587Z,1002.27
2022-12-31T15:45:52.611Z,1002.20
2022-12-31T15:46:52.567Z,1002.23
2022-12-31T15:47:52.568Z,1002.21
2022-12-31T15:48:53.954Z,1002.24
2022-12-31T15:49:52.564Z,1002.25
2022-12-31T15:50:52.525Z,1002.24
2022-12-31T15:51:52.527Z,1002.28
2022-12-31T15:52:52.513Z,1002.25
2022-12-31T15:53:52.518Z,1002.31
2022-12-31T15:54:52.473Z,1002.30
2022-12-31T15:55:52.523Z,1002.30
2022-12-31T15:56:52.453Z,1002.37
2022-12-31T15:57:52.442Z,1002.35
2022-12-31T15:58:52.427Z,1002.33
2022-12-31T15:59:52.430Z,1002.40
2022-12-31T16:00:52.416Z,1002.37
2022-12-31T16:01:53.200Z,1002.36
2022-12-31T16:02:52.626Z,1002.36
2022-12-31T16:03:52.466Z,1002.35
2022-12-31T16:04:52.413Z,1002.39
2022-12-31T16:05:52.432Z,1002.39
2022-12-31T16:06:52.427Z,1002.42
2022-12-31T16:07:52.463Z,1002.46
2022-12-31T16:08:52.369Z,1002.44
2022-12-31T16:09:52.409Z,1002.44
2022-12-31T16:10:52.368Z,1002.46
2022-12-31T16:11:52.374Z,1002.46
2022-12-31T16:12:52.326Z,1002.46
2022-12-31T16:13:52.341Z,1002.46
2022-12-31T16:14:52.322Z,1002.46
2022-12-31T16:15:52.367Z,1002.42
2022-12-31T16:16:52.293Z,1002.43
2022-12-31T16:17:52.301Z,1002.35
2022-12-31T16:18:52.277Z,1002.40
2022-12-31T16:19:52.272Z,1002.34
2022-12-31T16:20:52.241Z,1002.34
2022-12-31T16:21:52.284Z,1002.31
2022-12-31T16:22:52.234Z,1002.33
2022-12-31T16:23:52.234Z,1002.38
2022-12-31T16:25:28.443Z,1002.35
2022-12-31T16:25:52.207Z,1002.39
2022-12-31T16:26:52.260Z,1002.37
2022-12-31T16:27:52.223Z,1002.41
2022-12-31T16:28:52.154Z,1002.40
2022-12-31T16:29:55.814Z,1002.38
2022-12-31T16:30:52.185Z,1002.39
2022-12-31T16:31:52.149Z,1002.37
2022-12-31T16:32:52.114Z,1002.36
2022-12-31T16:33:52.142Z,1002.39
2022-12-31T16:34:52.100Z,1002.41
2022-12-31T16:35:52.095Z,1002.41
2022-12-31T16:36:52.072Z,1002.47
2022-12-31T16:37:52.103Z,1002.48
2022-12-31T16:38:52.072Z,1002.48
2022-12-31T16:39:52.080Z,1002.49
2022-12-31T16:40:52.025Z,1002.48
2022-12-31T16:41:52.027Z,1002.49
2022-12-31T16:42:52.022Z,1002.48
2022-12-31T16:43:52.042Z,1002.48